Time;durP1;ratioP1;P1;durP2;ratioP2;P2;SDS_P1;SDS_P2;PMS_P1;PMS_P2;Temp;Humidity;BMP_temperature;BMP_pressure;BME280_temperature;BME280_humidity;BME280_pressure;Samples;Min_cycle;Max_cycle;Signal;HPM_P1;HPM_P2
2023/03/31 00:00:19;;;;;;;11.57;11.00;;;10.90;99.90;;;;;;4731179;30;20540;-41
2023/03/31 00:02:44;;;;;;;11.33;10.73;;;10.90;99.90;;;;;;4734378;30;20277;-42
2023/03/31 00:05:10;;;;;;;11.60;11.03;;;10.90;99.90;;;;;;4729727;30;20678;-45
2023/03/31 00:07:39;;;;;;;11.37;10.77;;;11.00;99.90;;;;;;4731430;30;20676;-41
2023/03/31 00:10:05;;;;;;;11.00;10.50;;;11.00;99.90;;;;;;4734148;30;20468;-41
2023/03/31 00:12:31;;;;;;;10.73;10.13;;;11.00;99.90;;;;;;4727769;30;20535;-41
2023/03/31 00:14:56;;;;;;;12.20;11.50;;;11.10;99.90;;;;;;4726425;30;20424;-42
2023/03/31 00:17:22;;;;;;;12.77;11.93;;;11.20;99.90;;;;;;4720117;30;20200;-43
2023/03/31 00:19:48;;;;;;;12.23;11.53;;;11.20;99.90;;;;;;4732857;30;20193;-54
2023/03/31 00:22:17;;;;;;;11.47;10.97;;;11.20;99.90;;;;;;4725686;30;20188;-52
2023/03/31 00:24:43;;;;;;;11.30;10.70;;;11.20;99.90;;;;;;4739988;30;20540;-43
2023/03/31 00:27:10;;;;;;;11.80;11.20;;;11.10;99.90;;;;;;4733308;30;20805;-41
2023/03/31 00:29:40;;;;;;;12.07;11.40;;;11.10;99.90;;;;;;4742056;30;20448;-43
2023/03/31 00:32:06;;;;;;;11.77;11.27;;;11.10;99.90;;;;;;4738063;30;20509;-45
2023/03/31 00:34:31;;;;;;;13.20;12.40;;;11.10;99.90;;;;;;4743478;30;20453;-42
2023/03/31 00:37:01;;;;;;;12.30;11.50;;;11.00;99.90;;;;;;4730438;30;20455;-42
2023/03/31 00:39:30;;;;;;;11.93;11.30;;;11.00;99.90;;;;;;4726714;30;20243;-41
2023/03/31 00:41:57;;;;;;;11.83;11.10;;;11.00;99.90;;;;;;4727003;30;20434;-41
2023/03/31 00:44:28;;;;;;;12.07;11.37;;;11.10;99.90;;;;;;4727208;30;20451;-42
2023/03/31 00:47:00;;;;;;;12.10;11.50;;;11.00;99.90;;;;;;4736518;30;21359;-40
2023/03/31 00:49:53;;;;;;;11.80;11.20;;;11.10;99.90;;;;;;4739149;30;20934;-42
2023/03/31 00:52:26;;;;;;;11.97;11.37;;;11.20;99.90;;;;;;4723384;30;20559;-42
2023/03/31 00:55:00;;;;;;;12.07;11.30;;;11.20;99.90;;;;;;4726366;30;20469;-44
2023/03/31 00:57:27;;;;;;;12.27;11.53;;;11.30;99.90;;;;;;4742724;30;20447;-42
2023/03/31 00:59:58;;;;;;;12.10;11.50;;;11.30;99.90;;;;;;4742484;30;20946;-46
2023/03/31 01:02:27;;;;;;;12.50;11.70;;;11.30;99.90;;;;;;4737071;30;20460;-44
2023/03/31 01:04:58;;;;;;;12.20;11.60;;;11.30;99.90;;;;;;4726854;30;20462;-41
2023/03/31 01:07:36;;;;;;;11.97;11.37;;;11.30;99.90;;;;;;4728031;30;20481;-44
2023/03/31 01:10:03;;;;;;;12.10;11.50;;;11.30;99.90;;;;;;4729125;30;20924;-43
2023/03/31 01:12:33;;;;;;;12.10;11.50;;;11.30;99.90;;;;;;4726010;30;20490;-45
2023/03/31 01:15:00;;;;;;;12.23;11.63;;;11.20;99.90;;;;;;4742068;30;20446;-41
2023/03/31 01:17:28;;;;;;;11.80;11.30;;;11.20;99.90;;;;;;4730907;30;20489;-41
2023/03/31 01:20:21;;;;;;;12.60;11.80;;;11.20;99.90;;;;;;4733089;30;20457;-43
2023/03/31 01:23:09;;;;;;;12.23;11.47;;;11.20;99.90;;;;;;4736560;30;20584;-43
2023/03/31 01:26:12;;;;;;;12.40;11.80;;;11.10;99.90;;;;;;4741193;30;20434;-43
2023/03/31 01:28:51;;;;;;;12.17;11.50;;;11.00;99.90;;;;;;4734266;30;20475;-41
2023/03/31 01:31:16;;;;;;;12.30;11.70;;;11.00;99.90;;;;;;4724815;30;20442;-42
2023/03/31 01:34:09;;;;;;;12.53;11.70;;;10.90;99.90;;;;;;4733687;30;21190;-41
2023/03/31 01:37:05;;;;;;;12.23;11.53;;;10.80;99.90;;;;;;4740936;30;20287;-42
2023/03/31 01:40:15;;;;;;;12.70;12.00;;;10.70;99.90;;;;;;4737915;30;20573;-40
2023/03/31 01:42:41;;;;;;;12.47;11.73;;;10.60;99.90;;;;;;4684344;30;20451;-46
2023/03/31 01:45:34;;;;;;;12.03;11.43;;;10.50;99.90;;;;;;4705249;30;20441;-42
2023/03/31 01:48:24;;;;;;;11.67;10.97;;;10.40;99.90;;;;;;4704300;30;20244;-41
2023/03/31 01:50:55;;;;;;;12.00;11.30;;;10.40;99.90;;;;;;4704095;30;20467;-43
2023/03/31 01:53:32;;;;;;;11.73;10.93;;;10.30;99.90;;;;;;4703485;30;20538;-44
2023/03/31 01:56:12;;;;;;;12.13;11.40;;;10.30;99.90;;;;;;4703247;30;20462;-44
2023/03/31 01:58:40;;;;;;;12.17;11.50;;;10.20;99.90;;;;;;4698489;30;20449;-42
2023/03/31 02:01:15;;;;;;;12.63;11.70;;;10.20;99.90;;;;;;4704329;30;20450;-40
2023/03/31 02:03:52;;;;;;;12.33;11.53;;;10.10;99.90;;;;;;4703922;30;20910;-46
2023/03/31 02:06:25;;;;;;;12.27;11.60;;;10.00;99.90;;;;;;4704245;30;20460;-41
2023/03/31 02:08:57;;;;;;;12.20;11.53;;;9.90;99.90;;;;;;4705173;30;20437;-40
2023/03/31 02:11:24;;;;;;;12.20;11.60;;;9.90;99.90;;;;;;4703863;30;20450;-41
2023/03/31 02:13:52;;;;;;;12.50;11.80;;;9.80;99.90;;;;;;4707685;30;20506;-42
2023/03/31 02:16:26;;;;;;;12.50;11.80;;;9.80;99.90;;;;;;4734071;30;20445;-42
2023/03/31 02:19:01;;;;;;;11.73;11.13;;;9.80;99.90;;;;;;4725037;30;20521;-44
2023/03/31 02:21:32;;;;;;;12.40;11.70;;;9.80;99.90;;;;;;4725886;30;20531;-42
2023/03/31 02:24:04;;;;;;;12.07;11.27;;;9.70;99.90;;;;;;4729078;30;20460;-42
2023/03/31 02:26:36;;;;;;;12.13;11.37;;;9.70;99.90;;;;;;4728219;30;20451;-43
2023/03/31 02:29:02;;;;;;;11.93;11.23;;;9.70;99.90;;;;;;4735880;30;20455;-41
2023/03/31 02:31:48;;;;;;;12.20;11.30;;;9.60;99.90;;;;;;4733415;30;20528;-43
2023/03/31 02:34:14;;;;;;;11.37;10.67;;;9.70;99.90;;;;;;4734153;30;20467;-41
2023/03/31 02:36:42;;;;;;;11.90;11.20;;;9.70;99.90;;;;;;4738128;30;20811;-46
2023/03/31 02:39:16;;;;;;;12.30;11.60;;;9.70;99.90;;;;;;4735150;30;20455;-44
2023/03/31 02:41:42;;;;;;;12.13;11.33;;;9.80;99.90;;;;;;4741214;30;20431;-42
2023/03/31 02:44:09;;;;;;;12.00;11.30;;;9.80;99.90;;;;;;4731982;30;20456;-43
2023/03/31 02:46:36;;;;;;;12.30;11.63;;;9.80;99.90;;;;;;4736110;30;20487;-42
2023/03/31 02:49:05;;;;;;;10.80;10.30;;;9.80;99.90;;;;;;4726917;30;20994;-41
2023/03/31 02:52:04;;;;;;;13.03;12.20;;;9.90;99.90;;;;;;4734330;30;20518;-41
2023/03/31 02:54:56;;;;;;;11.83;11.23;;;9.90;99.90;;;;;;4731746;30;20457;-43
2023/03/31 02:57:27;;;;;;;11.93;11.20;;;9.80;99.90;;;;;;4726050;30;20477;-40
2023/03/31 03:00:17;;;;;;;12.60;11.70;;;9.70;99.90;;;;;;4727312;30;20981;-43
2023/03/31 03:02:51;;;;;;;11.67;11.07;;;9.60;99.90;;;;;;4725017;30;20490;-40
2023/03/31 03:05:44;;;;;;;12.07;11.40;;;9.50;99.90;;;;;;4725000;30;20558;-45
2023/03/31 03:08:42;;;;;;;11.50;10.60;;;9.50;99.90;;;;;;4739818;30;20437;-41
2023/03/31 03:11:45;;;;;;;12.00;11.40;;;9.40;99.90;;;;;;4725713;30;20597;-44
2023/03/31 03:14:31;;;;;;;12.43;11.57;;;9.40;99.90;;;;;;4724524;30;20447;-41
2023/03/31 03:17:10;;;;;;;15.80;14.60;;;9.40;99.90;;;;;;4724159;30;20934;-40
2023/03/31 03:19:36;;;;;;;19.43;17.90;;;9.40;99.90;;;;;;4723999;30;20451;-42
2023/03/31 03:22:02;;;;;;;12.30;11.30;;;9.40;99.90;;;;;;4724291;30;20765;-41
2023/03/31 03:24:28;;;;;;;12.43;11.33;;;9.40;99.90;;;;;;4724875;30;20618;-44
2023/03/31 03:26:54;;;;;;;11.90;11.30;;;9.50;99.90;;;;;;4730482;30;21257;-42
2023/03/31 03:29:20;;;;;;;11.20;10.50;;;9.50;99.90;;;;;;4734485;30;20951;-43
2023/03/31 03:31:46;;;;;;;12.40;11.53;;;9.60;99.90;;;;;;4728376;30;20427;-41
2023/03/31 03:34:12;;;;;;;15.17;14.10;;;9.70;99.90;;;;;;4727258;30;20455;-46
2023/03/31 03:36:38;;;;;;;12.53;11.77;;;9.70;99.90;;;;;;4736327;30;20471;-41
2023/03/31 03:39:06;;;;;;;12.63;11.73;;;9.80;99.90;;;;;;4739839;30;20203;-44
2023/03/31 03:41:32;;;;;;;11.17;10.50;;;9.80;99.90;;;;;;4736951;30;20459;-47
2023/03/31 03:43:59;;;;;;;11.87;11.17;;;9.70;99.90;;;;;;4737913;30;20452;-50
2023/03/31 03:46:24;;;;;;;10.50;9.90;;;9.80;99.90;;;;;;4739315;30;20478;-49
2023/03/31 03:48:50;;;;;;;11.43;10.80;;;9.70;99.90;;;;;;4731465;30;20467;-50
2023/03/31 03:51:16;;;;;;;11.03;10.43;;;9.70;99.90;;;;;;4735799;30;20192;-51
2023/03/31 03:53:41;;;;;;;11.00;10.40;;;9.80;99.90;;;;;;4731193;30;20239;-47
2023/03/31 03:56:07;;;;;;;12.10;11.33;;;9.80;99.90;;;;;;4739125;30;20181;-49
2023/03/31 03:58:33;;;;;;;11.77;11.10;;;9.80;99.90;;;;;;4740704;30;20684;-51
2023/03/31 04:00:58;;;;;;;12.00;11.30;;;9.90;99.90;;;;;;4730562;30;20208;-52
2023/03/31 04:03:24;;;;;;;12.43;11.40;;;9.90;99.90;;;;;;4722987;30;20239;-50
2023/03/31 04:05:50;;;;;;;11.20;10.60;;;10.00;99.90;;;;;;4725776;30;20214;-47
2023/03/31 04:08:17;;;;;;;11.63;10.90;;;10.00;99.90;;;;;;4737912;30;20531;-50
2023/03/31 04:10:44;;;;;;;11.47;10.50;;;10.00;99.90;;;;;;4730461;30;20202;-50
2023/03/31 04:13:10;;;;;;;11.20;10.50;;;10.10;99.90;;;;;;4736534;30;20486;-49
2023/03/31 04:15:36;;;;;;;11.80;10.90;;;10.10;99.90;;;;;;4731968;30;20784;-51
2023/03/31 04:18:01;;;;;;;11.40;10.50;;;10.10;99.90;;;;;;4732649;30;21381;-51
2023/03/31 04:20:29;;;;;;;11.90;11.10;;;10.20;99.90;;;;;;4735407;30;20199;-49
2023/03/31 04:22:55;;;;;;;11.90;11.10;;;10.20;99.90;;;;;;4736086;30;20233;-50
2023/03/31 04:25:21;;;;;;;11.53;10.77;;;10.20;99.90;;;;;;4732447;30;20454;-50
2023/03/31 04:27:54;;;;;;;11.60;10.90;;;10.20;99.90;;;;;;4739197;30;20191;-53
2023/03/31 04:30:29;;;;;;;11.40;10.70;;;10.20;99.90;;;;;;4728364;30;20446;-46
2023/03/31 04:32:57;;;;;;;11.70;10.80;;;10.20;99.90;;;;;;4731549;30;20844;-49
2023/03/31 04:35:25;;;;;;;11.70;10.90;;;10.20;99.90;;;;;;4734790;30;21258;-52
2023/03/31 04:37:57;;;;;;;12.40;11.67;;;10.20;99.90;;;;;;4716600;30;20455;-52
2023/03/31 04:40:24;;;;;;;11.10;10.20;;;10.20;99.90;;;;;;4725389;30;20928;-48
2023/03/31 04:42:51;;;;;;;12.73;11.73;;;10.20;99.90;;;;;;4725200;30;20461;-49
2023/03/31 04:45:17;;;;;;;10.50;9.90;;;10.20;99.90;;;;;;4722325;30;20923;-50
2023/03/31 04:47:42;;;;;;;11.37;10.53;;;10.20;99.90;;;;;;4723550;30;20496;-47
2023/03/31 04:50:11;;;;;;;10.90;10.10;;;10.20;99.90;;;;;;4722549;30;20458;-46
2023/03/31 04:52:38;;;;;;;11.70;11.00;;;10.20;99.90;;;;;;4722881;30;20213;-50
2023/03/31 04:55:05;;;;;;;12.10;11.20;;;10.30;99.90;;;;;;4722398;30;20430;-47
2023/03/31 04:57:30;;;;;;;11.47;10.57;;;10.30;99.90;;;;;;4726801;30;20433;-49
2023/03/31 04:59:56;;;;;;;11.00;10.40;;;10.30;99.90;;;;;;4723113;30;20936;-47
2023/03/31 05:02:24;;;;;;;10.93;10.23;;;10.40;99.90;;;;;;4722046;30;20204;-42
2023/03/31 05:04:50;;;;;;;11.23;10.57;;;10.50;99.90;;;;;;4723681;30;20227;-44
2023/03/31 05:07:16;;;;;;;11.77;10.97;;;10.50;99.90;;;;;;4722625;30;20537;-45
2023/03/31 05:09:42;;;;;;;11.23;10.40;;;10.60;99.90;;;;;;4726496;30;20261;-45
2023/03/31 05:12:08;;;;;;;12.37;11.60;;;10.60;99.90;;;;;;4724841;30;20458;-43
2023/03/31 05:14:33;;;;;;;11.80;11.10;;;10.70;99.90;;;;;;4726973;30;20441;-44
2023/03/31 05:16:59;;;;;;;11.83;11.03;;;10.70;99.90;;;;;;4725841;30;20227;-42
2023/03/31 05:19:25;;;;;;;12.27;11.17;;;10.70;99.90;;;;;;4738021;30;20229;-45
2023/03/31 05:21:51;;;;;;;12.50;11.60;;;10.70;99.90;;;;;;4742520;30;20434;-44
2023/03/31 05:24:16;;;;;;;12.13;11.37;;;10.80;99.90;;;;;;4727129;30;20316;-45
2023/03/31 05:26:47;;;;;;;12.40;11.57;;;10.80;99.90;;;;;;4739597;30;20200;-42
2023/03/31 05:29:13;;;;;;;10.97;10.30;;;10.80;99.90;;;;;;4736321;30;20178;-42
2023/03/31 05:31:38;;;;;;;11.60;10.80;;;10.80;99.90;;;;;;4731051;30;20443;-42
2023/03/31 05:34:05;;;;;;;11.60;10.90;;;10.70;99.90;;;;;;4742190;30;20207;-43
2023/03/31 05:36:31;;;;;;;13.33;12.33;;;10.70;99.90;;;;;;4740083;30;20430;-44
2023/03/31 05:38:56;;;;;;;14.77;13.80;;;10.70;99.90;;;;;;4728449;30;20454;-44
2023/03/31 05:41:22;;;;;;;11.43;10.63;;;10.70;99.90;;;;;;4735463;30;20455;-47
2023/03/31 05:43:48;;;;;;;12.13;11.23;;;10.60;99.90;;;;;;4726667;30;20269;-42
2023/03/31 05:46:13;;;;;;;12.30;11.20;;;10.70;99.90;;;;;;4735391;30;20267;-45
2023/03/31 05:48:40;;;;;;;12.20;11.37;;;10.80;99.90;;;;;;4742282;30;20207;-46
2023/03/31 05:51:05;;;;;;;12.93;12.13;;;10.80;99.90;;;;;;4740208;30;20200;-46
2023/03/31 05:53:31;;;;;;;12.47;11.63;;;10.90;99.90;;;;;;4741766;30;20485;-44
2023/03/31 05:55:58;;;;;;;11.00;10.23;;;11.00;99.90;;;;;;4741617;30;20195;-42
2023/03/31 05:58:24;;;;;;;11.23;10.43;;;11.10;99.90;;;;;;4741516;30;20184;-42
2023/03/31 06:00:52;;;;;;;12.80;11.90;;;11.10;99.90;;;;;;4741984;30;20434;-46
2023/03/31 06:03:18;;;;;;;12.23;11.07;;;11.20;99.90;;;;;;4741976;30;20445;-44
2023/03/31 06:05:48;;;;;;;11.43;10.70;;;11.40;99.90;;;;;;4742519;30;20798;-43
2023/03/31 06:08:13;;;;;;;12.10;11.40;;;11.40;99.90;;;;;;4731193;30;21208;-42
2023/03/31 06:10:40;;;;;;;12.13;11.37;;;11.50;99.90;;;;;;4742107;30;20443;-42
2023/03/31 06:13:05;;;;;;;12.07;11.30;;;11.60;99.90;;;;;;4741572;30;20756;-43
2023/03/31 06:15:31;;;;;;;11.90;11.20;;;11.70;99.90;;;;;;4731972;30;20434;-44
2023/03/31 06:17:57;;;;;;;12.67;11.77;;;11.80;99.90;;;;;;4725109;30;20197;-42
2023/03/31 06:20:22;;;;;;;11.50;10.77;;;11.90;99.90;;;;;;4725246;30;20223;-44
2023/03/31 06:22:48;;;;;;;12.77;11.80;;;12.10;99.90;;;;;;4742050;30;20239;-48
2023/03/31 06:25:13;;;;;;;12.77;11.97;;;12.20;99.90;;;;;;4729938;30;20207;-49
2023/03/31 06:27:39;;;;;;;11.33;10.50;;;12.20;99.90;;;;;;4735744;30;20627;-47
2023/03/31 06:30:06;;;;;;;10.57;10.07;;;12.20;99.90;;;;;;4742021;30;20970;-51
2023/03/31 06:32:31;;;;;;;12.00;11.33;;;12.30;99.90;;;;;;4736208;30;20983;-51
2023/03/31 06:34:57;;;;;;;12.20;11.20;;;12.40;99.90;;;;;;4740099;30;20431;-50
2023/03/31 06:37:23;;;;;;;11.20;10.37;;;12.50;99.90;;;;;;4735378;30;20185;-50
2023/03/31 06:39:49;;;;;;;11.20;10.60;;;12.70;99.90;;;;;;4733390;30;20250;-49
2023/03/31 06:42:16;;;;;;;12.13;11.50;;;12.80;99.90;;;;;;4739215;30;20254;-50
2023/03/31 06:44:41;;;;;;;12.70;11.77;;;12.90;99.90;;;;;;4739685;30;20443;-51
2023/03/31 06:47:07;;;;;;;12.00;11.40;;;13.00;99.90;;;;;;4739946;30;20323;-50
2023/03/31 06:49:32;;;;;;;10.40;9.80;;;13.10;99.90;;;;;;4740583;30;20660;-47
2023/03/31 06:51:58;;;;;;;10.00;9.30;;;13.20;99.90;;;;;;4736490;30;20262;-48
2023/03/31 06:54:24;;;;;;;11.93;11.23;;;13.20;99.90;;;;;;4741058;30;20189;-46
2023/03/31 06:56:49;;;;;;;12.17;11.27;;;13.10;99.90;;;;;;4732153;30;20193;-51
2023/03/31 06:59:15;;;;;;;11.50;10.90;;;13.20;99.90;;;;;;4732468;30;20660;-49
2023/03/31 07:01:41;;;;;;;11.50;10.80;;;13.40;99.90;;;;;;4729890;30;20204;-53
2023/03/31 07:04:07;;;;;;;11.00;10.40;;;13.50;99.90;;;;;;4739662;30;20195;-51
2023/03/31 07:06:34;;;;;;;12.80;12.00;;;13.60;99.90;;;;;;4731626;30;21189;-48
2023/03/31 07:08:59;;;;;;;11.53;10.93;;;13.70;99.90;;;;;;4729475;30;21192;-50
2023/03/31 07:11:25;;;;;;;11.70;10.97;;;13.80;99.90;;;;;;4730034;30;20517;-50
2023/03/31 07:13:50;;;;;;;11.70;10.90;;;13.90;99.90;;;;;;4727196;30;20767;-52
2023/03/31 07:16:16;;;;;;;12.20;11.40;;;13.80;99.90;;;;;;4725823;30;20200;-46
2023/03/31 07:18:42;;;;;;;12.77;11.97;;;13.90;99.90;;;;;;4724946;30;20189;-50
2023/03/31 07:21:07;;;;;;;12.10;11.40;;;13.90;99.90;;;;;;4726005;30;20196;-50
2023/03/31 07:23:34;;;;;;;12.43;11.63;;;13.80;99.90;;;;;;4726227;30;20205;-51
2023/03/31 07:26:01;;;;;;;11.83;11.23;;;13.80;99.90;;;;;;4725517;30;20193;-52
2023/03/31 07:28:28;;;;;;;12.50;11.70;;;13.70;99.90;;;;;;4726427;30;20789;-47
2023/03/31 07:30:53;;;;;;;11.93;11.23;;;13.60;99.90;;;;;;4724603;30;20454;-52
2023/03/31 07:33:19;;;;;;;12.20;11.50;;;13.60;99.90;;;;;;4723762;30;20515;-51
2023/03/31 07:35:45;;;;;;;12.20;11.33;;;13.70;99.90;;;;;;4722647;30;20801;-48
2023/03/31 07:38:11;;;;;;;13.17;12.37;;;13.60;99.90;;;;;;4728021;30;20204;-49
2023/03/31 07:40:38;;;;;;;11.77;11.17;;;13.80;99.90;;;;;;4719920;30;20200;-46
2023/03/31 07:43:04;;;;;;;12.70;12.00;;;13.90;99.90;;;;;;4722016;30;20435;-49
2023/03/31 07:45:31;;;;;;;12.30;11.50;;;14.10;99.90;;;;;;4727403;30;20438;-50
2023/03/31 07:47:56;;;;;;;12.50;11.80;;;14.20;99.90;;;;;;4726732;30;20479;-48
2023/03/31 07:50:22;;;;;;;12.40;11.43;;;14.50;99.90;;;;;;4724217;30;20438;-46
2023/03/31 07:52:49;;;;;;;13.03;12.30;;;14.70;99.90;;;;;;4732737;30;20298;-49
2023/03/31 07:55:15;;;;;;;12.60;11.90;;;14.80;99.90;;;;;;4735745;30;20500;-51
2023/03/31 07:57:42;;;;;;;11.77;10.97;;;15.10;99.90;;;;;;4723913;30;20592;-49
2023/03/31 08:00:11;;;;;;;12.93;11.90;;;15.20;99.90;;;;;;4734766;30;20434;-51
2023/03/31 08:02:37;;;;;;;13.07;12.37;;;15.30;99.90;;;;;;4739340;30;20431;-51
2023/03/31 08:05:04;;;;;;;13.57;12.50;;;15.40;99.90;;;;;;4739104;30;20434;-49
2023/03/31 08:07:33;;;;;;;13.10;12.30;;;15.40;99.90;;;;;;4732644;30;20566;-46
2023/03/31 08:09:58;;;;;;;11.90;11.30;;;15.40;99.90;;;;;;4735050;30;20512;-51
2023/03/31 08:12:24;;;;;;;14.30;13.40;;;15.40;99.90;;;;;;4739365;30;20471;-50
2023/03/31 08:14:50;;;;;;;13.87;12.97;;;15.30;99.90;;;;;;4738792;30;20695;-52
2023/03/31 08:17:15;;;;;;;13.63;12.90;;;15.20;99.90;;;;;;4740486;30;20185;-42
2023/03/31 08:19:41;;;;;;;14.60;13.60;;;15.20;99.90;;;;;;4739791;30;20292;-42
2023/03/31 08:22:06;;;;;;;12.57;11.77;;;15.10;99.90;;;;;;4740152;30;20203;-40
2023/03/31 08:24:32;;;;;;;12.97;11.97;;;14.90;99.90;;;;;;4729139;30;20192;-43
2023/03/31 08:26:58;;;;;;;14.33;13.50;;;15.10;99.90;;;;;;4735622;30;20188;-43
2023/03/31 08:29:23;;;;;;;13.20;12.33;;;15.10;99.90;;;;;;4724007;30;20975;-41
2023/03/31 08:31:49;;;;;;;11.97;11.20;;;15.20;99.90;;;;;;4740094;30;20334;-41
2023/03/31 08:34:14;;;;;;;12.10;11.40;;;15.20;99.90;;;;;;4739420;30;20301;-43
2023/03/31 08:36:40;;;;;;;12.50;11.83;;;15.10;98.50;;;;;;4737033;30;20563;-43
2023/03/31 08:39:06;;;;;;;12.10;11.40;;;15.20;98.50;;;;;;4733030;30;20193;-40
2023/03/31 08:41:46;;;;;;;12.40;11.43;;;15.20;98.60;;;;;;4737192;30;20200;-44
2023/03/31 08:44:18;;;;;;;12.40;11.53;;;15.20;98.70;;;;;;4734425;30;20445;-42
2023/03/31 08:46:44;;;;;;;11.63;11.03;;;15.10;98.00;;;;;;4739013;30;21010;-43
2023/03/31 08:49:15;;;;;;;12.13;11.43;;;15.00;98.80;;;;;;4733791;30;20433;-44
2023/03/31 08:51:47;;;;;;;11.93;11.23;;;15.00;98.90;;;;;;4737901;30;20188;-42
2023/03/31 08:54:24;;;;;;;11.50;10.90;;;14.90;98.70;;;;;;4734296;30;20479;-40
2023/03/31 08:56:50;;;;;;;12.43;11.43;;;14.80;98.60;;;;;;4726904;30;20510;-46
2023/03/31 08:59:26;;;;;;;11.50;10.80;;;14.60;98.60;;;;;;4733417;30;20481;-45
2023/03/31 09:01:55;;;;;;;12.77;11.47;;;14.50;99.00;;;;;;4742967;30;20434;-43
2023/03/31 09:04:46;;;;;;;12.23;11.20;;;14.60;99.30;;;;;;4743386;30;20423;-44
2023/03/31 09:07:18;;;;;;;12.50;11.60;;;14.50;99.90;;;;;;4735782;30;20483;-44
2023/03/31 09:10:19;;;;;;;11.37;10.57;;;14.40;99.90;;;;;;4743080;30;20431;-44
2023/03/31 09:13:20;;;;;;;11.80;11.10;;;14.20;99.90;;;;;;4716947;30;20494;-42
2023/03/31 09:15:54;;;;;;;12.07;11.37;;;14.10;99.90;;;;;;4691990;30;20981;-43
2023/03/31 09:18:30;;;;;;;11.13;10.20;;;14.10;99.90;;;;;;4721028;30;20434;-45
2023/03/31 09:21:15;;;;;;;10.50;9.80;;;14.10;99.90;;;;;;4742800;30;20494;-44
2023/03/31 09:24:24;;;;;;;11.73;10.83;;;14.10;99.90;;;;;;4725426;30;21393;-47
2023/03/31 09:26:51;;;;;;;11.40;10.70;;;14.10;99.90;;;;;;4734094;30;20446;-44
2023/03/31 09:29:39;;;;;;;11.30;10.60;;;14.10;99.90;;;;;;4741288;30;20449;-41
2023/03/31 09:32:27;;;;;;;11.77;10.87;;;14.10;99.90;;;;;;4742711;30;20855;-41
2023/03/31 09:35:00;;;;;;;10.63;10.03;;;14.10;99.90;;;;;;4741987;30;20442;-43
2023/03/31 09:37:30;;;;;;;11.23;10.73;;;14.00;99.90;;;;;;4737113;30;20434;-40
2023/03/31 09:39:58;;;;;;;11.23;10.63;;;14.00;99.90;;;;;;4733931;30;20475;-42
2023/03/31 09:42:25;;;;;;;10.40;9.90;;;14.00;99.90;;;;;;4737136;30;20496;-42
2023/03/31 09:44:50;;;;;;;10.60;10.00;;;14.00;99.90;;;;;;4727888;30;20474;-42
2023/03/31 09:47:27;;;;;;;10.23;9.70;;;14.00;99.90;;;;;;4725094;30;21017;-42
2023/03/31 09:49:53;;;;;;;10.90;10.27;;;13.90;99.90;;;;;;4737436;30;20228;-41
2023/03/31 09:52:31;;;;;;;10.63;9.97;;;14.00;99.90;;;;;;4738211;30;20446;-41
2023/03/31 09:55:01;;;;;;;9.80;9.20;;;14.10;99.90;;;;;;4731937;30;20208;-42
2023/03/31 09:57:33;;;;;;;10.57;9.97;;;14.20;99.90;;;;;;4737136;30;20507;-42
2023/03/31 10:00:19;;;;;;;9.70;9.30;;;14.20;99.90;;;;;;4727893;30;20458;-43
2023/03/31 10:02:53;;;;;;;10.20;9.70;;;14.20;99.90;;;;;;4728902;30;20535;-41
2023/03/31 10:05:29;;;;;;;10.67;10.00;;;14.10;99.90;;;;;;4727254;30;20439;-43
2023/03/31 10:08:18;;;;;;;10.90;10.10;;;14.10;99.90;;;;;;4736419;30;20482;-41
2023/03/31 10:11:14;;;;;;;12.50;11.70;;;14.10;99.90;;;;;;4721045;30;20439;-41
2023/03/31 10:13:47;;;;;;;11.57;10.83;;;14.20;99.90;;;;;;4730207;30;20486;-44
2023/03/31 10:16:31;;;;;;;12.67;11.77;;;14.10;99.90;;;;;;4736402;30;20450;-43
2023/03/31 10:19:17;;;;;;;12.40;11.70;;;14.10;99.90;;;;;;4730518;30;20466;-45
2023/03/31 10:21:45;;;;;;;12.20;11.33;;;14.00;99.90;;;;;;4731494;30;20537;-46
2023/03/31 10:24:16;;;;;;;11.30;10.70;;;14.00;99.90;;;;;;4733323;30;20466;-43
2023/03/31 10:26:42;;;;;;;11.40;10.80;;;13.80;99.90;;;;;;4726412;30;20432;-43
2023/03/31 10:29:14;;;;;;;11.57;10.80;;;13.80;99.90;;;;;;4727815;30;20435;-41
2023/03/31 10:31:39;;;;;;;11.13;10.63;;;13.70;99.90;;;;;;4729166;30;20198;-40
2023/03/31 10:34:10;;;;;;;12.30;11.40;;;13.60;99.90;;;;;;4734190;30;20486;-42
2023/03/31 10:36:36;;;;;;;11.97;11.30;;;13.70;99.90;;;;;;4729895;30;20189;-43
2023/03/31 10:39:06;;;;;;;12.63;12.03;;;13.70;99.90;;;;;;4730435;30;20455;-44
2023/03/31 10:41:32;;;;;;;12.40;11.70;;;13.60;99.90;;;;;;4729149;30;20477;-43
2023/03/31 10:44:01;;;;;;;12.17;11.50;;;13.60;99.90;;;;;;4736766;30;20434;-43
2023/03/31 10:46:51;;;;;;;13.20;12.40;;;13.70;99.90;;;;;;4740299;30;20895;-42
2023/03/31 10:49:20;;;;;;;12.00;11.20;;;13.70;99.90;;;;;;4724656;30;20521;-42
2023/03/31 10:51:56;;;;;;;13.17;12.47;;;13.70;99.90;;;;;;4725434;30;20439;-42
2023/03/31 10:54:22;;;;;;;13.27;12.37;;;13.70;99.90;;;;;;4737759;30;20852;-46
2023/03/31 10:57:00;;;;;;;12.10;11.30;;;13.80;99.90;;;;;;4734942;30;20914;-41
2023/03/31 10:59:45;;;;;;;12.27;11.57;;;13.70;99.90;;;;;;4729869;30;20438;-43
2023/03/31 11:02:54;;;;;;;12.53;11.90;;;13.50;99.90;;;;;;4726020;30;21187;-44
2023/03/31 11:05:35;;;;;;;13.30;12.60;;;13.60;99.90;;;;;;4725196;30;20805;-44
2023/03/31 11:08:10;;;;;;;14.20;13.20;;;13.60;99.90;;;;;;4728664;30;20505;-44
2023/03/31 11:10:51;;;;;;;13.10;12.40;;;13.40;99.90;;;;;;4728321;30;20447;-43
2023/03/31 11:13:31;;;;;;;13.80;13.00;;;13.30;99.90;;;;;;4740796;30;20477;-41
2023/03/31 11:16:10;;;;;;;13.77;13.00;;;13.20;99.90;;;;;;4740766;30;20438;-44
2023/03/31 11:18:41;;;;;;;13.13;12.43;;;13.30;99.90;;;;;;4741061;30;20474;-43
2023/03/31 11:21:22;;;;;;;12.70;11.97;;;13.10;99.90;;;;;;4724679;30;20451;-42
2023/03/31 11:24:25;;;;;;;14.40;13.60;;;13.10;99.90;;;;;;4732726;30;20436;-41
2023/03/31 11:26:58;;;;;;;13.20;12.40;;;12.90;99.90;;;;;;4702470;30;21022;-43
2023/03/31 11:29:38;;;;;;;14.30;13.60;;;12.90;99.90;;;;;;4731214;30;20427;-41
2023/03/31 11:32:29;;;;;;;13.87;13.07;;;12.90;99.90;;;;;;4726096;30;20485;-40
2023/03/31 11:35:23;;;;;;;14.90;14.07;;;12.70;99.90;;;;;;4729233;30;20444;-41
2023/03/31 11:38:11;;;;;;;14.60;13.80;;;12.60;99.90;;;;;;4723819;30;20427;-41
2023/03/31 11:40:50;;;;;;;14.10;13.40;;;12.60;99.90;;;;;;4725191;30;20505;-43
2023/03/31 11:43:41;;;;;;;15.63;14.83;;;12.50;99.90;;;;;;4734581;30;20419;-41
2023/03/31 11:46:11;;;;;;;16.20;15.30;;;12.40;99.90;;;;;;4725437;30;20524;-41
2023/03/31 11:48:49;;;;;;;16.83;15.93;;;12.30;99.90;;;;;;4728012;30;20466;-42
2023/03/31 11:51:23;;;;;;;16.50;15.70;;;12.30;99.90;;;;;;4723881;30;20447;-41
2023/03/31 11:53:52;;;;;;;19.10;17.90;;;12.20;99.90;;;;;;4724735;30;20474;-44
2023/03/31 11:56:20;;;;;;;17.90;17.00;;;12.10;99.90;;;;;;4724156;30;20436;-45
2023/03/31 11:58:54;;;;;;;18.00;17.00;;;12.00;99.90;;;;;;4727686;30;20431;-43
2023/03/31 12:01:31;;;;;;;18.30;17.30;;;11.90;99.90;;;;;;4725950;30;20796;-41
2023/03/31 12:04:32;;;;;;;17.27;16.37;;;11.80;99.90;;;;;;4735468;30;20946;-42
2023/03/31 12:07:03;;;;;;;17.27;16.40;;;11.80;99.90;;;;;;4727407;30;20421;-44
2023/03/31 12:09:35;;;;;;;17.53;16.63;;;11.80;99.90;;;;;;4723185;30;20451;-44
2023/03/31 12:12:26;;;;;;;16.43;15.40;;;11.80;99.90;;;;;;4729804;30;21147;-40
2023/03/31 12:15:01;;;;;;;16.53;15.63;;;11.80;99.90;;;;;;4724200;30;20443;-47
2023/03/31 12:17:28;;;;;;;17.27;16.37;;;11.70;99.90;;;;;;4723654;30;20458;-41
2023/03/31 12:19:55;;;;;;;17.53;16.73;;;11.60;99.90;;;;;;4722163;30;20445;-45
2023/03/31 12:22:30;;;;;;;18.20;17.33;;;11.60;99.90;;;;;;4728916;30;20444;-41
2023/03/31 12:24:55;;;;;;;18.10;17.07;;;11.50;99.90;;;;;;4722418;30;20422;-43
2023/03/31 12:27:39;;;;;;;17.50;16.60;;;11.50;99.90;;;;;;4727573;30;20487;-42
2023/03/31 12:30:26;;;;;;;18.37;17.37;;;11.40;99.90;;;;;;4725861;30;20194;-44
2023/03/31 12:32:55;;;;;;;17.60;16.60;;;11.40;99.90;;;;;;4725062;30;20633;-44
2023/03/31 12:35:31;;;;;;;17.70;16.80;;;11.40;99.90;;;;;;4736359;30;21463;-41
2023/03/31 12:38:37;;;;;;;17.23;16.13;;;11.40;99.90;;;;;;4734411;30;20422;-43
2023/03/31 12:41:13;;;;;;;17.83;16.67;;;11.50;99.90;;;;;;4732328;30;20441;-42
2023/03/31 12:43:52;;;;;;;17.27;16.30;;;11.50;99.90;;;;;;4739753;30;20469;-43
2023/03/31 12:46:35;;;;;;;17.60;16.60;;;11.50;99.90;;;;;;4733963;30;20993;-43
2023/03/31 12:49:34;;;;;;;16.30;15.40;;;11.60;99.90;;;;;;4725745;30;20614;-43
2023/03/31 12:53:01;;;;;;;18.47;17.27;;;11.60;99.90;;;;;;4727487;30;20534;-44